KVPZ/VPZ METAR and TAF weather

Enter ICAO airport designator
Station Type Date Time Source
KVPZ METAR 2019/12/13 02:56 UTC NOAA

KVPZ 130256Z AUTO 18006KT 10SM CLR 02/M04 A3011 RMK AO2 SLP205 T00171039 56010


Station Type Date Time Source
KVPZ Decoded METAR 2019/12/13 02:56 UTC NOAA

VALPARAISO PORTER CO MUNI, IN, United States (KVPZ) 41-27N 087-00W 231M
Dec 12, 2019 - 09:56 PM EST / 2019.12.13 0256 UTC
Wind: from the S (180 degrees) at 7 MPH (6 KT):0
Visibility: 10 mile(s):0
Sky conditions: clear
Temperature: 35.1 F (1.7 C)
Dew Point: 25.0 F (-3.9 C)
Relative Humidity: 66%
Pressure (altimeter): 30.11 in. Hg (1019 hPa)
Pressure tendency: 0.03 inches (1.0 hPa) lower than three hours ago
ob: KVPZ 130256Z AUTO 18006KT 10SM CLR 02/M04 A3011 RMK AO2 SLP205 T00171039 56010
cycle: 3

Station Type Date Time Source
KVPZ TAF UTC NOAA

Error!

Example: see airport list